»·PEaware :: N147CD KPSP-KLAS

N147CD :: KPSP-KLAS

FLIGHT INFORMATION

Flight Status: Arrived
Operator: Privately registered:
United States
More flights under this callsign
Pilot: Martin A. (6413)
Aircraft: CIRRUS SR-20
(SR20)
More flights by this aircraft type
Origin: KPSP Palm Springs Intl
United States
Destination: KLAS McCarran Intl
United States
More flights between these airports :: More routes between these airports
Route: +CATH1 PSP TNP V514 GFS V538 LAS
File this flight plan on PilotEdge
Remarks:
Altitude:
(Current/Filed)
9,000ft
Speed:
(Current/Filed)
130kts
Departed: 21-Apr-19 01:48 PM
Arrived: 21-Apr-19 03:05 PM
Distance/Time
Traveled:
150nm/1:17
Distance/Time
To Go:
Arrived

Flight Plot

Page will automatically refresh every two minutes.

Flight plan parsing failed; only flown route is shown


Map Options




Map Legend


Flown Route
Filed Route
Departure Airport
Arrival Airport
Navaid (VOR, NDB)
Fix

Horizontal Profiles

Position Reports

Time Latitude Longitude Heading Altitude Ground
Speed
21-Apr-19 13:27 33.823049 -116.497313 52 425ft 0kts
21-Apr-19 13:28 33.823049 -116.497313 52 425ft 0kts
21-Apr-19 13:29 33.823049 -116.497313 52 425ft 0kts
21-Apr-19 13:30 33.823049 -116.497313 52 425ft 0kts
21-Apr-19 13:31 33.823049 -116.497313 52 425ft 0kts
21-Apr-19 13:32 33.823049 -116.497313 52 425ft 0kts
21-Apr-19 13:33 33.823049 -116.497313 52 425ft 0kts
21-Apr-19 13:34 33.823049 -116.497313 52 425ft 0kts
21-Apr-19 13:35 33.823049 -116.497313 52 425ft 0kts
21-Apr-19 13:36 33.823049 -116.497313 52 425ft 0kts
21-Apr-19 13:38 33.823049 -116.497313 52 425ft 0kts
21-Apr-19 13:39 33.823049 -116.497313 52 425ft 0kts
21-Apr-19 13:40 33.823049 -116.497313 52 425ft 0kts
21-Apr-19 13:41 33.823049 -116.497313 52 425ft 0kts
21-Apr-19 13:42 33.822819 -116.496987 152 425ft 7kts
21-Apr-19 13:43 33.821699 -116.496482 144 425ft 8kts
21-Apr-19 13:44 33.820423 -116.495359 143 425ft 0kts
21-Apr-19 13:45 33.819852 -116.496074 232 425ft 7kts
21-Apr-19 13:46 33.819217 -116.497072 232 425ft 0kts
21-Apr-19 13:47 33.818755 -116.497871 261 425ft 5kts
21-Apr-19 13:48 33.827784 -116.506069 323 568ft 86kts
21-Apr-19 13:49 33.847029 -116.523086 325 1512ft 85kts
21-Apr-19 13:50 33.865301 -116.541909 304 2348ft 89kts
21-Apr-19 13:51 33.882897 -116.562116 320 3160ft 89kts
21-Apr-19 13:52 33.901543 -116.581422 329 3925ft 88kts
21-Apr-19 13:53 33.910175 -116.559252 106 4640ft 108kts
21-Apr-19 13:54 33.898308 -116.521802 107 5157ft 130kts
21-Apr-19 13:55 33.885209 -116.479829 107 5717ft 133kts
21-Apr-19 13:56 33.872623 -116.439086 107 6395ft 127kts
21-Apr-19 13:57 33.857996 -116.400782 116 7074ft 124kts
21-Apr-19 13:58 33.841946 -116.364367 117 7705ft 127kts
21-Apr-19 13:59 33.833297 -116.323277 46 8120ft 131kts
21-Apr-19 14:00 33.858339 -116.290447 38 8516ft 136kts
21-Apr-19 14:01 33.882654 -116.254774 54 8905ft 142kts
21-Apr-19 14:01 33.898689 -116.219985 54 9228ft 143kts
21-Apr-19 14:03 33.921761 -116.171279 53 9682ft 144kts
21-Apr-19 14:04 33.941734 -116.129323 53 10073ft 144kts
21-Apr-19 14:04 33.958412 -116.094268 53 10399ft 145kts
21-Apr-19 14:06 33.981809 -116.045042 53 10857ft 145kts
21-Apr-19 14:06 33.998949 -116.009102 53 11017ft 155kts
21-Apr-19 14:08 34.025158 -115.954369 54 11030ft 162kts
21-Apr-19 14:08 34.043600 -115.915246 54 11038ft 162kts
21-Apr-19 14:09 34.065779 -115.867625 54 11038ft 163kts
21-Apr-19 14:10 34.087790 -115.819623 55 11038ft 163kts
21-Apr-19 14:11 34.109564 -115.771350 55 11040ft 164kts
21-Apr-19 14:12 34.135614 -115.727522 38 11040ft 159kts
21-Apr-19 14:13 34.167405 -115.690766 21 11040ft 153kts
21-Apr-19 14:14 34.203643 -115.662897 30 11040ft 156kts
21-Apr-19 14:15 34.237100 -115.628630 34 11040ft 158kts
21-Apr-19 14:16 34.269669 -115.592744 35 11040ft 158kts
21-Apr-19 14:17 34.301956 -115.556532 35 11040ft 158kts
21-Apr-19 14:18 34.336398 -115.525694 12 11041ft 150kts
21-Apr-19 14:19 34.374861 -115.508430 11 11132ft 148kts
21-Apr-19 14:20 34.413740 -115.491398 11 11132ft 149kts
21-Apr-19 14:21 34.452640 -115.474434 11 11132ft 149kts
21-Apr-19 14:22 34.491552 -115.457487 11 11132ft 148kts
21-Apr-19 14:23 34.530465 -115.440527 11 11132ft 149kts
21-Apr-19 14:24 34.569418 -115.423532 11 11124ft 149kts
21-Apr-19 14:25 34.608377 -115.406515 11 11115ft 149kts
21-Apr-19 14:26 34.647515 -115.389404 11 11105ft 149kts
21-Apr-19 14:27 34.686711 -115.372251 11 11095ft 150kts
21-Apr-19 14:28 34.725919 -115.355073 11 11085ft 150kts
21-Apr-19 14:29 34.765399 -115.337765 11 11052ft 150kts
21-Apr-19 14:30 34.804738 -115.320499 11 11028ft 150kts
21-Apr-19 14:31 34.844156 -115.303190 12 11008ft 151kts
21-Apr-19 14:32 34.883802 -115.285744 12 10994ft 151kts
21-Apr-19 14:33 34.922587 -115.268679 12 10993ft 146kts
21-Apr-19 14:34 34.960351 -115.252055 13 10993ft 143kts
21-Apr-19 14:35 34.997544 -115.235658 14 10993ft 141kts
21-Apr-19 14:36 35.034395 -115.219393 15 10993ft 140kts
21-Apr-19 14:37 35.070841 -115.203262 15 10997ft 139kts
21-Apr-19 14:38 35.107345 -115.187103 15 11005ft 139kts
21-Apr-19 14:39 35.144647 -115.176719 358 11010ft 137kts
21-Apr-19 14:40 35.182836 -115.175724 357 11016ft 137kts
21-Apr-19 14:41 35.220974 -115.174962 357 11019ft 137kts
21-Apr-19 14:42 35.259293 -115.174263 357 11020ft 137kts
21-Apr-19 14:43 35.297683 -115.173582 357 11020ft 137kts
21-Apr-19 14:44 35.335978 -115.172908 357 11021ft 137kts
21-Apr-19 14:45 35.374326 -115.172234 357 11021ft 137kts
21-Apr-19 14:46 35.412695 -115.171560 357 11021ft 137kts
21-Apr-19 14:47 35.451054 -115.170885 357 11021ft 138kts
21-Apr-19 14:48 35.489537 -115.170208 357 11021ft 138kts
21-Apr-19 14:49 35.529692 -115.169506 357 10644ft 147kts
21-Apr-19 14:50 35.571802 -115.168738 357 10152ft 157kts
21-Apr-19 14:51 35.616580 -115.167904 357 9552ft 163kts
21-Apr-19 14:52 35.662638 -115.167077 357 8947ft 166kts
21-Apr-19 14:53 35.709544 -115.166251 357 8415ft 167kts
21-Apr-19 14:54 35.754593 -115.165442 357 8407ft 158kts
21-Apr-19 14:55 35.798544 -115.164651 358 8384ft 158kts
21-Apr-19 14:56 35.841626 -115.170765 337 8332ft 152kts
21-Apr-19 14:57 35.883043 -115.185663 341 8053ft 159kts
21-Apr-19 14:58 35.925390 -115.199939 342 6926ft 156kts
21-Apr-19 14:59 35.965980 -115.217263 341 5412ft 147kts
21-Apr-19 15:00 36.004582 -115.211643 29 3949ft 132kts
21-Apr-19 15:01 36.036144 -115.193056 24 3246ft 115kts
21-Apr-19 15:02 36.062104 -115.177977 25 2575ft 96kts
21-Apr-19 15:03 36.084246 -115.165344 26 2113ft 49kts
21-Apr-19 15:04 36.089102 -115.162939 325 2113ft 9kts
21-Apr-19 15:05 36.089362 -115.163421 292 2113ft 0kts
21-Apr-19 15:06 36.089633 -115.164459 231 2113ft 7kts
21-Apr-19 15:07 36.087009 -115.166077 204 2113ft 13kts
21-Apr-19 15:08 36.083446 -115.168110 204 2113ft 14kts
21-Apr-19 15:09 36.081430 -115.170593 250 2113ft 8kts
21-Apr-19 15:10 36.080674 -115.170567 127 2113ft 0kts

Navigation Log

Ident Type
Flight plan parsing failed, navigation log unavailable